Time;durP1;ratioP1;P1;durP2;ratioP2;P2;SDS_P1;SDS_P2;PMS_P1;PMS_P2;Temp;Humidity;BMP_temperature;BMP_pressure;BME280_temperature;BME280_humidity;BME280_pressure;Samples;Min_cycle;Max_cycle;Signal;HPM_P1;HPM_P2
2021/12/12 05:00:10;;;;;;;52.90;20.77;;;4.00;99.90;;;;;;6020485;23;20323;31
2021/12/12 05:02:45;;;;;;;49.53;20.27;;;4.00;99.90;;;;;;4933746;29;20202;-70
2021/12/12 05:05:16;;;;;;;51.72;20.15;;;4.10;99.90;;;;;;4938985;29;20232;-69
2021/12/12 05:07:48;;;;;;;46.47;22.00;;;4.10;99.90;;;;;;4935268;29;20218;-70
2021/12/12 05:10:21;;;;;;;63.03;22.48;;;4.10;99.90;;;;;;4935704;29;20202;-69
2021/12/12 05:12:54;;;;;;;46.00;20.20;;;4.10;99.90;;;;;;4935418;29;20233;-69
2021/12/12 05:18:04;;;;;;;42.88;21.17;;;4.10;99.90;;;;;;4973325;28;20212;-71
2021/12/12 05:20:35;;;;;;;43.42;20.08;;;4.10;99.90;;;;;;4973699;28;20238;-71
2021/12/12 05:23:06;;;;;;;59.40;22.23;;;4.20;99.90;;;;;;4974397;28;20296;-71
2021/12/12 05:25:41;;;;;;;48.20;21.13;;;4.20;99.90;;;;;;4974219;28;20220;-71
2021/12/12 05:28:09;;;;;;;53.05;22.33;;;4.10;99.90;;;;;;4974226;28;20255;-71
2021/12/12 05:30:37;;;;;;;44.28;20.05;;;4.20;99.90;;;;;;4974200;28;20213;-70
2021/12/12 05:33:07;;;;;;;47.88;22.25;;;4.20;99.90;;;;;;4973877;28;20224;-70
2021/12/12 05:35:39;;;;;;;48.42;22.08;;;4.20;99.90;;;;;;4972840;28;20648;-71
2021/12/12 05:38:07;;;;;;;43.83;21.02;;;4.20;99.90;;;;;;4974153;28;20208;-70
2021/12/12 05:40:38;;;;;;;41.53;20.30;;;4.20;99.90;;;;;;4973580;28;20634;-71
2021/12/12 05:43:07;;;;;;;43.85;20.92;;;4.20;99.90;;;;;;4974124;28;20224;-71
2021/12/12 05:45:36;;;;;;;35.17;19.35;;;4.20;99.90;;;;;;4973535;28;20339;-71
2021/12/12 05:48:07;;;;;;;45.90;20.75;;;4.20;99.90;;;;;;4973981;28;20572;-70
2021/12/12 05:50:34;;;;;;;52.33;21.75;;;4.20;99.90;;;;;;4972854;28;20213;-71
2021/12/12 05:53:01;;;;;;;45.70;19.20;;;4.20;99.90;;;;;;4973524;28;20224;-71
2021/12/12 05:55:30;;;;;;;40.33;19.98;;;4.20;99.90;;;;;;4974055;28;20217;-71
2021/12/12 05:58:00;;;;;;;46.70;20.20;;;4.20;99.90;;;;;;4973840;28;20274;-71
2021/12/12 06:00:30;;;;;;;38.97;19.48;;;4.20;99.90;;;;;;4971346;28;20234;-71
2021/12/12 06:02:58;;;;;;;40.83;19.92;;;4.20;99.90;;;;;;4971419;28;20197;-70
2021/12/12 06:05:26;;;;;;;50.03;21.88;;;4.20;99.90;;;;;;4972628;28;20212;-70
2021/12/12 06:07:55;;;;;;;40.63;20.17;;;4.20;99.90;;;;;;4971118;28;20208;-70
2021/12/12 06:10:22;;;;;;;40.60;19.50;;;4.20;99.90;;;;;;4973210;28;20868;-70
2021/12/12 06:12:49;;;;;;;30.67;18.25;;;4.20;99.90;;;;;;4973063;28;20216;-70
2021/12/12 06:15:19;;;;;;;39.33;19.45;;;4.20;99.90;;;;;;4973117;28;20259;-71
2021/12/12 06:17:48;;;;;;;39.65;19.52;;;4.30;99.90;;;;;;4973126;28;20314;-70
2021/12/12 06:20:16;;;;;;;40.28;20.15;;;4.30;99.90;;;;;;4972828;28;20677;-72
2021/12/12 06:22:45;;;;;;;35.50;19.23;;;4.20;99.90;;;;;;4972884;28;20267;-72
2021/12/12 06:25:12;;;;;;;39.67;19.30;;;4.20;99.90;;;;;;4973048;28;20205;-72
2021/12/12 06:27:39;;;;;;;37.63;18.60;;;4.20;99.90;;;;;;4973277;28;20772;-71
2021/12/12 06:30:10;;;;;;;35.35;19.00;;;4.20;99.90;;;;;;4972980;28;20204;-71
2021/12/12 06:32:36;;;;;;;32.72;19.00;;;4.20;99.90;;;;;;4973586;28;20224;-71
2021/12/12 06:35:04;;;;;;;38.72;16.25;;;4.30;99.90;;;;;;4972808;28;20267;-71
2021/12/12 06:37:31;;;;;;;28.80;16.02;;;4.20;99.90;;;;;;4973484;28;20232;-71
2021/12/12 06:39:59;;;;;;;34.90;17.50;;;4.20;99.90;;;;;;4972604;28;20211;-71
2021/12/12 06:42:26;;;;;;;36.42;17.92;;;4.30;99.90;;;;;;4973259;28;20569;-71
2021/12/12 06:44:53;;;;;;;37.58;17.02;;;4.30;99.90;;;;;;4971974;28;20209;-71
2021/12/12 06:47:20;;;;;;;35.85;17.75;;;4.20;99.90;;;;;;4973271;28;20689;-70
2021/12/12 06:49:48;;;;;;;35.28;17.35;;;4.20;99.90;;;;;;4971855;28;20209;-71
2021/12/12 06:52:16;;;;;;;38.17;17.73;;;4.20;99.90;;;;;;4969563;28;20268;-71
2021/12/12 06:54:44;;;;;;;30.45;15.82;;;4.30;99.90;;;;;;4972163;28;20532;-71
2021/12/12 06:57:15;;;;;;;28.48;16.23;;;4.20;99.90;;;;;;4972876;28;20272;-71
2021/12/12 06:59:43;;;;;;;37.03;17.70;;;4.20;99.90;;;;;;4972461;28;20216;-70
2021/12/12 07:02:11;;;;;;;32.67;17.00;;;4.20;99.90;;;;;;4972492;28;20213;-71
2021/12/12 07:04:39;;;;;;;30.40;15.95;;;4.20;99.90;;;;;;4971811;28;20201;-71
2021/12/12 07:07:09;;;;;;;36.67;15.23;;;4.20;99.90;;;;;;4971987;28;20283;-69
2021/12/12 07:09:38;;;;;;;27.67;15.07;;;4.30;99.90;;;;;;4972002;28;20642;-70
2021/12/12 07:12:08;;;;;;;23.25;14.20;;;4.20;99.90;;;;;;4969363;28;20209;-70
2021/12/12 07:14:38;;;;;;;25.38;14.55;;;4.20;99.90;;;;;;4972095;28;20229;-70
2021/12/12 07:17:06;;;;;;;27.42;15.15;;;4.20;99.90;;;;;;4968548;28;20232;-70
2021/12/12 07:19:33;;;;;;;34.35;16.85;;;4.20;99.90;;;;;;4971995;28;20274;-70
2021/12/12 07:22:01;;;;;;;29.60;16.20;;;4.20;99.90;;;;;;4970890;28;20217;-70
2021/12/12 07:24:31;;;;;;;25.15;14.10;;;4.20;99.90;;;;;;4972296;28;20251;-70
2021/12/12 07:26:59;;;;;;;25.25;14.00;;;4.20;99.90;;;;;;4971898;28;20654;-70
2021/12/12 07:29:26;;;;;;;35.58;16.15;;;4.20;99.90;;;;;;4972442;28;20247;-71
2021/12/12 07:31:56;;;;;;;26.40;15.35;;;4.20;99.90;;;;;;4971501;28;20258;-70
2021/12/12 07:34:23;;;;;;;32.80;15.18;;;4.10;99.90;;;;;;4971433;28;20225;-70
2021/12/12 07:36:52;;;;;;;25.42;14.55;;;4.10;99.90;;;;;;4971378;28;20362;-70
2021/12/12 07:39:22;;;;;;;34.22;15.80;;;4.10;99.90;;;;;;4972385;28;20212;-70
2021/12/12 07:41:50;;;;;;;27.05;14.90;;;4.10;99.90;;;;;;4971441;28;20200;-70
2021/12/12 07:44:19;;;;;;;21.70;12.10;;;4.10;99.90;;;;;;4971599;28;20200;-71
2021/12/12 07:46:47;;;;;;;26.15;13.18;;;4.10;99.90;;;;;;4971227;28;20232;-71
2021/12/12 07:49:19;;;;;;;21.63;13.35;;;4.10;99.90;;;;;;4971695;28;20689;-72
2021/12/12 07:51:46;;;;;;;24.67;14.15;;;4.10;99.90;;;;;;4970950;28;20669;-71
2021/12/12 07:54:13;;;;;;;24.58;12.77;;;4.10;99.90;;;;;;4971429;28;20299;-72
2021/12/12 07:56:43;;;;;;;25.85;13.35;;;4.10;99.90;;;;;;4971534;28;20227;-72
2021/12/12 07:59:11;;;;;;;28.80;14.65;;;4.10;99.90;;;;;;4971778;28;20204;-71
2021/12/12 08:01:42;;;;;;;19.27;12.38;;;4.20;99.90;;;;;;4971469;28;20209;-70
2021/12/12 08:04:10;;;;;;;30.55;13.82;;;4.20;99.90;;;;;;4971240;28;20208;-70
2021/12/12 08:06:39;;;;;;;20.73;13.65;;;4.20;99.90;;;;;;4970913;28;20220;-70
2021/12/12 08:09:08;;;;;;;27.77;13.38;;;4.20;99.90;;;;;;4971608;28;20208;-71
2021/12/12 08:11:35;;;;;;;25.50;12.70;;;4.20;99.90;;;;;;4971353;28;20205;-71
2021/12/12 08:14:05;;;;;;;21.92;12.10;;;4.20;99.90;;;;;;4965217;28;20299;-72
2021/12/12 08:16:32;;;;;;;24.85;13.20;;;4.20;99.90;;;;;;4968783;28;20727;-70
2021/12/12 08:18:59;;;;;;;17.83;12.70;;;4.10;99.90;;;;;;4971545;28;20209;-71
2021/12/12 08:21:28;;;;;;;22.10;12.02;;;4.20;99.90;;;;;;4970469;28;20208;-71
2021/12/12 08:24:01;;;;;;;20.67;12.07;;;4.20;99.90;;;;;;4970514;28;20203;-71
2021/12/12 08:26:29;;;;;;;19.63;11.05;;;4.20;99.90;;;;;;4971479;28;20232;-71
2021/12/12 08:28:56;;;;;;;21.10;12.10;;;4.20;99.90;;;;;;4973750;28;20291;-71
2021/12/12 08:31:23;;;;;;;32.55;18.83;;;4.20;99.90;;;;;;4975619;28;20208;-70
2021/12/12 08:33:50;;;;;;;42.53;20.40;;;4.20;99.90;;;;;;4974296;28;20233;-71
2021/12/12 08:36:17;;;;;;;41.22;22.50;;;4.20;99.90;;;;;;4973188;28;20235;-71
2021/12/12 08:38:44;;;;;;;49.92;27.85;;;4.20;99.90;;;;;;4970064;28;20669;-71
2021/12/12 08:41:12;;;;;;;16.98;12.85;;;4.20;99.90;;;;;;4970731;28;20279;-71
2021/12/12 08:43:40;;;;;;;40.97;21.60;;;4.20;99.90;;;;;;4974925;28;20587;-71
2021/12/12 08:46:11;;;;;;;29.02;16.35;;;4.30;99.90;;;;;;4975696;28;20259;-72
2021/12/12 08:48:41;;;;;;;20.08;13.70;;;4.30;99.90;;;;;;4974432;28;20288;-71
2021/12/12 08:51:11;;;;;;;25.02;13.13;;;4.30;99.90;;;;;;4973973;28;20556;-72
2021/12/12 08:53:41;;;;;;;21.15;13.20;;;4.30;99.90;;;;;;4974275;28;20224;-72
2021/12/12 08:56:17;;;;;;;22.02;14.38;;;4.30;99.90;;;;;;4975473;28;20666;-71
2021/12/12 08:58:45;;;;;;;19.80;11.27;;;4.30;99.90;;;;;;4975566;28;20299;-72
2021/12/12 09:01:17;;;;;;;20.70;10.85;;;4.30;99.90;;;;;;4974772;28;20204;-71
2021/12/12 09:03:50;;;;;;;21.42;12.95;;;4.30;99.90;;;;;;4968725;28;20316;-72
2021/12/12 09:06:18;;;;;;;16.95;11.82;;;4.30;99.90;;;;;;4972115;28;20682;-71
2021/12/12 09:08:50;;;;;;;21.60;10.65;;;4.40;99.90;;;;;;4974839;28;20208;-70
2021/12/12 09:11:22;;;;;;;21.33;12.70;;;4.40;99.90;;;;;;4974633;28;20600;-70
2021/12/12 09:13:56;;;;;;;21.10;11.43;;;4.40;99.90;;;;;;4974870;28;20227;-69
2021/12/12 09:16:26;;;;;;;22.38;13.52;;;4.40;99.90;;;;;;4973913;28;20235;-70
2021/12/12 09:18:58;;;;;;;21.25;12.70;;;4.40;99.90;;;;;;4971146;28;20244;-71
2021/12/12 09:21:30;;;;;;;18.05;10.93;;;4.50;99.90;;;;;;4965453;28;20217;-70
2021/12/12 09:24:06;;;;;;;18.05;11.88;;;4.40;99.90;;;;;;4970325;28;20201;-70
2021/12/12 09:26:36;;;;;;;21.70;13.93;;;4.40;99.90;;;;;;4974506;28;20402;-70
2021/12/12 09:29:13;;;;;;;23.02;9.88;;;4.40;99.90;;;;;;4973416;28;20343;-70
2021/12/12 09:31:47;;;;;;;23.30;11.40;;;4.40;99.90;;;;;;4974112;28;20653;-70
2021/12/12 09:34:20;;;;;;;15.73;10.15;;;4.40;99.90;;;;;;4972922;28;20224;-70
2021/12/12 09:36:52;;;;;;;18.55;11.02;;;4.50;99.90;;;;;;4973321;28;20411;-71
2021/12/12 09:39:28;;;;;;;21.00;10.20;;;4.50;99.90;;;;;;4973063;28;20212;-70
2021/12/12 09:42:28;;;;;;;16.08;9.77;;;4.50;99.90;;;;;;4973261;28;20209;-70
2021/12/12 09:45:48;;;;;;;26.35;9.23;;;4.60;99.90;;;;;;4965502;28;20549;-70
2021/12/12 09:51:51;;;;;;;14.25;9.63;;;4.60;99.90;;;;;;4874984;29;20203;-70
2021/12/12 09:54:27;;;;;;;14.98;9.23;;;4.60;99.90;;;;;;4974505;28;20335;-70
2021/12/12 09:56:59;;;;;;;13.45;9.07;;;4.70;99.90;;;;;;4973993;28;20224;-71
2021/12/12 09:59:39;;;;;;;15.63;9.88;;;4.70;99.90;;;;;;4973314;28;20205;-71
2021/12/12 10:02:16;;;;;;;14.07;9.95;;;4.70;99.90;;;;;;4973099;28;20304;-71
2021/12/12 10:04:53;;;;;;;13.77;8.88;;;4.80;99.90;;;;;;4972932;28;20332;-71
2021/12/12 10:07:34;;;;;;;18.88;12.00;;;4.80;99.90;;;;;;4971027;28;20352;-71
2021/12/12 10:10:06;;;;;;;16.42;9.70;;;4.80;99.90;;;;;;4973140;28;20599;-71
2021/12/12 10:12:39;;;;;;;18.35;13.00;;;4.80;99.90;;;;;;4972494;28;20204;-71
2021/12/12 10:15:11;;;;;;;16.15;10.02;;;4.90;99.90;;;;;;4965392;28;20236;-71
2021/12/12 10:17:44;;;;;;;13.10;8.35;;;4.90;99.90;;;;;;4972632;28;20266;-71
2021/12/12 10:20:14;;;;;;;10.48;7.75;;;5.00;99.90;;;;;;4972608;28;20247;-70
2021/12/12 10:23:02;;;;;;;10.70;6.72;;;5.00;99.90;;;;;;4971927;28;20670;-70
2021/12/12 10:25:34;;;;;;;7.82;7.03;;;5.10;99.90;;;;;;4972538;28;20626;-70
2021/12/12 10:28:10;;;;;;;10.60;7.13;;;5.10;99.90;;;;;;4972861;28;20208;-70
2021/12/12 10:30:43;;;;;;;9.93;6.55;;;5.10;99.90;;;;;;4973266;28;20262;-70
2021/12/12 10:33:16;;;;;;;8.73;6.43;;;5.20;99.90;;;;;;4972877;28;20315;-70
2021/12/12 10:35:48;;;;;;;8.32;7.22;;;5.20;99.90;;;;;;4972054;28;20246;-70
2021/12/12 10:38:20;;;;;;;10.25;8.82;;;5.30;99.90;;;;;;4972359;28;20685;-70
2021/12/12 10:40:53;;;;;;;8.98;8.07;;;5.30;99.90;;;;;;4972763;28;20732;-70
2021/12/12 10:43:28;;;;;;;7.75;6.03;;;5.30;99.90;;;;;;4970954;28;20200;-72
2021/12/12 10:45:59;;;;;;;10.98;8.15;;;5.40;99.90;;;;;;4972770;28;20224;-71
2021/12/12 10:48:35;;;;;;;9.00;8.07;;;5.40;99.90;;;;;;4972565;28;20234;-70
2021/12/12 10:51:05;;;;;;;10.40;7.05;;;5.40;99.90;;;;;;4971996;28;20200;-70
2021/12/12 10:53:39;;;;;;;11.13;9.95;;;5.40;99.90;;;;;;4973859;28;20219;-70
2021/12/12 10:56:14;;;;;;;8.02;5.85;;;5.40;99.90;;;;;;4972529;28;20246;-71
2021/12/12 10:58:46;;;;;;;8.13;6.70;;;5.40;99.90;;;;;;4971844;28;20207;-71
2021/12/12 11:01:18;;;;;;;10.48;7.32;;;5.30;99.90;;;;;;4972013;28;20263;-71
2021/12/12 11:03:51;;;;;;;10.60;6.88;;;5.30;99.90;;;;;;4967384;28;20645;-71
2021/12/12 11:06:24;;;;;;;11.25;7.90;;;5.30;99.90;;;;;;4971240;28;20709;-71
2021/12/12 11:08:56;;;;;;;7.45;6.57;;;5.30;99.90;;;;;;4971862;28;20874;-72
2021/12/12 11:11:26;;;;;;;9.38;7.65;;;5.30;99.90;;;;;;4969703;28;20711;-72
2021/12/12 11:14:03;;;;;;;8.55;7.65;;;5.30;99.90;;;;;;4971930;28;20205;-70
2021/12/12 11:16:34;;;;;;;6.20;5.60;;;5.20;99.90;;;;;;4972165;28;20382;-71
2021/12/12 11:19:09;;;;;;;9.02;7.57;;;5.30;99.90;;;;;;4971151;28;20805;-71
2021/12/12 11:21:40;;;;;;;15.48;7.43;;;5.20;99.90;;;;;;4970706;28;20210;-71
2021/12/12 11:24:13;;;;;;;10.18;9.00;;;5.20;99.90;;;;;;4971702;28;20197;-71
2021/12/12 11:26:42;;;;;;;11.77;9.98;;;5.20;99.90;;;;;;4971856;28;20295;-71
2021/12/12 11:29:13;;;;;;;10.38;7.40;;;5.20;99.90;;;;;;4968775;28;20288;-71
2021/12/12 11:31:46;;;;;;;9.88;6.10;;;5.20;99.90;;;;;;4967947;28;20207;-71
2021/12/12 11:34:15;;;;;;;7.22;5.82;;;5.20;99.90;;;;;;4970740;28;20220;-72
2021/12/12 11:36:51;;;;;;;5.88;5.38;;;5.20;99.90;;;;;;4967628;28;20639;-74
2021/12/12 11:39:24;;;;;;;6.68;5.93;;;5.20;99.90;;;;;;4970953;28;20304;-71
2021/12/12 11:41:58;;;;;;;8.85;6.43;;;5.20;99.90;;;;;;4966436;28;20225;-70
2021/12/12 11:44:30;;;;;;;6.55;5.88;;;5.30;99.90;;;;;;4969822;28;20212;-70
2021/12/12 11:47:05;;;;;;;7.78;6.10;;;5.30;99.90;;;;;;4971694;28;20647;-71
2021/12/12 11:49:50;;;;;;;6.35;5.75;;;5.30;99.90;;;;;;4965930;28;20204;-72
2021/12/12 11:52:31;;;;;;;8.13;5.47;;;5.30;99.90;;;;;;4970642;28;20564;-71
2021/12/12 11:55:02;;;;;;;7.55;6.38;;;5.30;99.90;;;;;;4971624;28;20745;-71
2021/12/12 11:57:34;;;;;;;6.43;5.80;;;5.30;99.90;;;;;;4970606;28;20252;-70
2021/12/12 12:00:14;;;;;;;7.32;6.57;;;5.30;99.90;;;;;;4971456;28;20254;-70
2021/12/12 12:02:46;;;;;;;5.78;5.15;;;5.30;99.90;;;;;;4969493;28;20203;-70
2021/12/12 12:05:30;;;;;;;63.45;32.50;;;5.30;99.90;;;;;;4967087;28;20209;-70
2021/12/12 12:08:05;;;;;;;34.63;18.70;;;5.30;99.90;;;;;;4961007;28;20649;-71
2021/12/12 12:10:43;;;;;;;8.45;7.57;;;5.30;99.90;;;;;;4970779;28;20211;-71
2021/12/12 12:13:24;;;;;;;8.75;7.80;;;5.30;99.90;;;;;;4971102;28;20649;-70
2021/12/12 12:15:57;;;;;;;11.88;8.43;;;5.30;99.90;;;;;;4970440;28;20236;-70
2021/12/12 12:18:35;;;;;;;5.95;5.55;;;5.40;99.90;;;;;;4971142;28;20200;-70
2021/12/12 12:21:11;;;;;;;8.57;7.57;;;5.40;99.90;;;;;;4965696;28;20211;-71
2021/12/12 12:24:10;;;;;;;7.63;6.88;;;5.40;99.90;;;;;;4970501;28;20208;-70
2021/12/12 12:30:04;;;;;;;7.53;6.85;;;5.50;99.90;;;;;;4970960;28;20211;-70
2021/12/12 12:33:10;;;;;;;12.10;9.45;;;5.50;99.90;;;;;;4957674;28;20311;-72
2021/12/12 12:36:49;;;;;;;7.88;7.10;;;5.50;99.90;;;;;;4954150;28;20610;-71
2021/12/12 12:40:05;;;;;;;9.88;8.88;;;5.60;99.90;;;;;;4959024;28;20748;-71
2021/12/12 12:43:25;;;;;;;6.15;5.55;;;5.60;99.90;;;;;;4971352;28;20208;-73
2021/12/12 12:46:44;;;;;;;8.63;7.88;;;5.60;99.90;;;;;;4967037;28;20216;-72
2021/12/12 12:49:56;;;;;;;7.28;6.45;;;5.60;99.90;;;;;;4967846;28;20664;-72
2021/12/12 12:52:59;;;;;;;10.80;9.70;;;5.60;99.90;;;;;;4968221;28;20209;-72
2021/12/12 12:56:00;;;;;;;6.82;6.10;;;5.70;99.90;;;;;;4970801;28;20684;-72
2021/12/12 12:58:36;;;;;;;7.80;6.85;;;5.70;99.90;;;;;;4971379;28;20208;-72
2021/12/12 13:01:09;;;;;;;7.05;6.43;;;5.70;99.90;;;;;;4970856;28;20205;-72
2021/12/12 13:03:43;;;;;;;6.90;6.30;;;5.70;99.90;;;;;;4965933;28;20216;-72
2021/12/12 13:06:46;;;;;;;7.45;6.75;;;5.70;99.90;;;;;;4969937;28;20220;-71
2021/12/12 13:09:22;;;;;;;6.70;6.03;;;5.70;99.90;;;;;;4971021;28;20213;-72
2021/12/12 13:12:07;;;;;;;7.32;6.43;;;5.70;99.90;;;;;;4970475;28;20200;-71
2021/12/12 13:14:47;;;;;;;5.32;4.90;;;5.70;99.90;;;;;;4970792;28;20233;-71
2021/12/12 13:17:21;;;;;;;8.40;5.90;;;5.70;99.90;;;;;;4974038;28;20232;-72
2021/12/12 13:19:57;;;;;;;5.85;5.30;;;5.70;99.90;;;;;;4974179;28;20305;-73
2021/12/12 13:22:30;;;;;;;8.57;5.80;;;5.80;99.90;;;;;;4973970;28;20287;-73
2021/12/12 13:25:07;;;;;;;7.65;6.93;;;5.80;99.90;;;;;;4973956;28;20263;-72
2021/12/12 13:30:41;;;;;;;8.52;6.32;;;5.80;99.90;;;;;;4961749;28;20230;-72
2021/12/12 13:33:28;;;;;;;7.25;6.60;;;5.80;99.90;;;;;;4974172;28;20552;-73
2021/12/12 13:36:19;;;;;;;6.40;5.78;;;5.80;99.90;;;;;;4972066;28;20599;-72
2021/12/12 13:38:53;;;;;;;7.60;6.78;;;5.80;99.90;;;;;;4974114;28;20223;-72
2021/12/12 13:41:32;;;;;;;8.90;7.65;;;5.80;99.90;;;;;;4973105;28;20216;-72
2021/12/12 13:44:05;;;;;;;7.90;7.25;;;5.80;99.90;;;;;;4970376;28;20216;-72
2021/12/12 13:46:38;;;;;;;7.60;6.80;;;5.90;99.90;;;;;;4972795;28;20221;-73
2021/12/12 13:49:13;;;;;;;10.13;8.98;;;5.90;99.90;;;;;;4970481;28;20212;-72
2021/12/12 13:51:47;;;;;;;12.30;9.10;;;5.90;99.90;;;;;;4958854;28;20204;-72
2021/12/12 13:54:25;;;;;;;7.80;7.07;;;5.90;99.90;;;;;;4971463;28;20214;-74
2021/12/12 13:57:11;;;;;;;10.48;7.47;;;5.90;99.90;;;;;;4966710;28;20232;-72
2021/12/12 13:59:59;;;;;;;9.18;8.25;;;5.90;99.90;;;;;;4967524;28;20761;-71
2021/12/12 14:02:26;;;;;;;10.90;7.20;;;6.00;99.90;;;;;;4972403;28;20256;-71
2021/12/12 14:04:57;;;;;;;6.45;5.95;;;6.00;99.90;;;;;;4975299;28;20205;-72
2021/12/12 14:07:30;;;;;;;7.15;6.50;;;6.00;99.90;;;;;;4977035;28;20235;-72
2021/12/12 14:09:59;;;;;;;8.05;7.25;;;6.10;99.90;;;;;;4977266;28;20204;-71
2021/12/12 14:12:29;;;;;;;9.68;7.10;;;6.10;99.90;;;;;;4975068;28;20724;-71
2021/12/12 14:15:02;;;;;;;8.50;7.65;;;6.10;99.90;;;;;;4976851;28;20224;-70
2021/12/12 14:17:34;;;;;;;6.68;6.18;;;6.20;99.90;;;;;;4972925;28;20240;-71
2021/12/12 14:20:04;;;;;;;9.70;8.70;;;6.20;99.90;;;;;;4974016;28;20200;-71
2021/12/12 14:22:32;;;;;;;6.75;6.15;;;6.20;99.90;;;;;;4972372;28;20363;-71
2021/12/12 14:25:03;;;;;;;7.63;6.88;;;6.20;99.90;;;;;;4963809;28;20654;-71
2021/12/12 14:27:33;;;;;;;9.60;8.70;;;6.20;99.90;;;;;;4972169;28;20500;-70
2021/12/12 14:30:05;;;;;;;8.38;7.55;;;6.20;99.90;;;;;;4964950;28;20292;-71
2021/12/12 14:32:34;;;;;;;11.57;10.40;;;6.20;99.90;;;;;;4959002;28;20566;-72
2021/12/12 14:35:04;;;;;;;13.90;11.32;;;6.20;99.90;;;;;;4963924;28;20590;-71
2021/12/12 14:37:35;;;;;;;9.38;8.30;;;6.30;99.90;;;;;;4959619;28;20590;-70
2021/12/12 14:40:07;;;;;;;14.98;11.45;;;6.30;99.90;;;;;;4972865;28;20214;-71
2021/12/12 14:42:38;;;;;;;13.65;11.00;;;6.30;99.90;;;;;;4962836;28;20209;-70
2021/12/12 14:45:08;;;;;;;11.35;8.25;;;6.30;99.90;;;;;;4972615;28;20243;-70
2021/12/12 14:47:39;;;;;;;8.63;7.80;;;6.30;99.90;;;;;;4971969;28;20280;-70
2021/12/12 14:50:15;;;;;;;9.55;8.65;;;6.30;99.90;;;;;;4972235;28;20219;-71
2021/12/12 14:52:43;;;;;;;8.98;8.07;;;6.40;99.90;;;;;;4960032;28;20223;-71
2021/12/12 14:55:16;;;;;;;12.35;9.65;;;6.40;99.90;;;;;;4971692;28;20216;-72
2021/12/12 14:57:46;;;;;;;16.60;12.95;;;6.40;99.90;;;;;;4972667;28;20254;-71
2021/12/12 15:00:17;;;;;;;11.52;9.52;;;6.40;99.90;;;;;;4958248;28;20252;-71
2021/12/12 15:02:52;;;;;;;9.32;8.43;;;6.40;99.90;;;;;;4967873;28;20209;-71
2021/12/12 15:05:23;;;;;;;9.70;8.13;;;6.40;99.90;;;;;;4971555;28;20204;-71
2021/12/12 15:07:52;;;;;;;8.88;7.97;;;6.40;99.90;;;;;;4966570;28;20233;-71
2021/12/12 15:10:23;;;;;;;8.00;7.30;;;6.40;99.90;;;;;;4971972;28;20213;-71
2021/12/12 15:12:54;;;;;;;14.80;12.80;;;6.40;99.90;;;;;;4972363;28;20255;-71
2021/12/12 15:15:24;;;;;;;7.90;7.22;;;6.50;99.90;;;;;;4972265;28;20284;-72
2021/12/12 15:17:54;;;;;;;8.30;7.50;;;6.50;99.90;;;;;;4971938;28;20238;-73
2021/12/12 15:20:25;;;;;;;7.85;7.22;;;6.50;99.90;;;;;;4967704;28;20214;-71
2021/12/12 15:22:56;;;;;;;8.00;7.30;;;6.50;99.90;;;;;;4967259;28;20290;-72
2021/12/12 15:25:26;;;;;;;7.10;6.57;;;6.50;99.90;;;;;;4971902;28;20778;-71
2021/12/12 15:28:00;;;;;;;11.43;7.60;;;6.50;99.90;;;;;;4971825;28;20239;-72
2021/12/12 15:30:30;;;;;;;13.05;9.95;;;6.60;99.90;;;;;;4971566;28;20215;-72
2021/12/12 15:32:59;;;;;;;7.68;6.97;;;6.50;99.90;;;;;;4969951;28;20283;-72
2021/12/12 15:35:28;;;;;;;7.05;6.35;;;6.60;99.90;;;;;;4971193;28;20700;-73
2021/12/12 15:37:56;;;;;;;5.95;5.40;;;6.60;99.90;;;;;;4970640;28;20299;-72
2021/12/12 15:40:27;;;;;;;6.22;5.72;;;6.70;99.90;;;;;;4963888;28;20689;-71
2021/12/12 15:43:00;;;;;;;6.95;6.45;;;6.70;99.90;;;;;;4966146;28;20267;-72
2021/12/12 15:45:30;;;;;;;4.93;4.60;;;6.70;99.90;;;;;;4967618;28;20647;-72
2021/12/12 15:47:58;;;;;;;5.40;4.90;;;6.70;99.90;;;;;;4965769;28;20212;-71
2021/12/12 15:50:29;;;;;;;4.55;4.28;;;6.70;99.90;;;;;;4969432;28;20208;-70
2021/12/12 15:52:59;;;;;;;6.50;5.97;;;6.70;99.90;;;;;;4970974;28;20208;-71
2021/12/12 15:55:31;;;;;;;5.38;4.90;;;6.70;99.90;;;;;;4970955;28;20677;-71
2021/12/12 15:58:10;;;;;;;5.43;5.00;;;6.70;99.90;;;;;;4966308;28;20205;-71
2021/12/12 16:00:45;;;;;;;5.40;5.00;;;6.70;99.90;;;;;;4970410;28;20263;-72
2021/12/12 16:03:15;;;;;;;6.20;5.72;;;6.70;99.90;;;;;;4972050;28;20208;-72
2021/12/12 16:05:44;;;;;;;6.65;6.05;;;6.80;99.90;;;;;;4961583;28;21743;-71
2021/12/12 16:08:15;;;;;;;5.95;5.45;;;6.80;99.90;;;;;;4963777;28;20201;-72
2021/12/12 16:10:44;;;;;;;6.55;5.88;;;6.80;99.90;;;;;;4970901;28;20229;-71
2021/12/12 16:13:22;;;;;;;6.80;6.30;;;6.90;99.90;;;;;;4965088;28;20208;-72
2021/12/12 16:15:51;;;;;;;6.40;5.90;;;6.90;99.90;;;;;;4969268;28;20246;-72
2021/12/12 16:18:18;;;;;;;6.50;6.00;;;6.90;99.90;;;;;;4969508;28;20211;-70
2021/12/12 16:20:49;;;;;;;6.35;5.75;;;6.90;99.90;;;;;;4970192;28;20209;-72
2021/12/12 16:23:19;;;;;;;6.63;6.03;;;6.90;99.90;;;;;;4969124;28;20220;-69
2021/12/12 16:25:52;;;;;;;6.82;6.22;;;6.90;99.90;;;;;;4968486;28;20201;-71
2021/12/12 16:28:22;;;;;;;6.20;5.60;;;6.90;99.90;;;;;;4967653;28;20205;-69
2021/12/12 16:30:58;;;;;;;7.13;6.43;;;6.90;99.90;;;;;;4970313;28;20846;-70
2021/12/12 16:33:31;;;;;;;6.05;5.50;;;6.90;99.90;;;;;;4971327;28;20204;-70
2021/12/12 16:35:58;;;;;;;6.72;6.13;;;6.90;99.90;;;;;;4970709;28;20237;-70
2021/12/12 16:38:28;;;;;;;10.43;8.13;;;6.90;99.90;;;;;;4968221;28;20267;-72
2021/12/12 16:40:59;;;;;;;8.70;7.80;;;6.90;99.90;;;;;;4969341;28;20204;-70
2021/12/12 16:43:29;;;;;;;9.75;8.70;;;6.90;99.90;;;;;;4960179;28;20205;-71
2021/12/12 16:46:02;;;;;;;9.18;8.35;;;6.90;99.90;;;;;;4971022;28;20697;-71
2021/12/12 16:48:40;;;;;;;16.60;10.05;;;7.00;99.90;;;;;;4966440;28;20215;-71
2021/12/12 16:51:08;;;;;;;19.15;11.55;;;7.00;99.90;;;;;;4974289;28;20200;-71
2021/12/12 16:53:38;;;;;;;21.27;14.93;;;7.00;99.90;;;;;;4973585;28;20899;-69
2021/12/12 16:56:09;;;;;;;26.63;20.42;;;6.90;99.90;;;;;;4972785;28;20697;-71
2021/12/12 16:58:41;;;;;;;16.98;13.45;;;7.00;99.90;;;;;;4969678;28;20318;-70
2021/12/12 17:01:13;;;;;;;10.93;9.73;;;7.00;99.90;;;;;;4965232;28;20220;-69
2021/12/12 17:03:43;;;;;;;10.45;9.35;;;7.00;99.90;;;;;;4974098;28;20205;-71
2021/12/12 17:06:14;;;;;;;14.70;11.85;;;7.00;99.90;;;;;;4973342;28;20733;-71
2021/12/12 17:09:10;;;;;;;11.75;10.10;;;7.00;99.90;;;;;;4973971;28;20204;-70
2021/12/12 17:11:42;;;;;;;18.38;12.85;;;7.10;99.90;;;;;;4972302;28;20213;-71
2021/12/12 17:14:14;;;;;;;12.55;10.50;;;7.10;99.90;;;;;;4972526;28;20213;-70
2021/12/12 17:16:45;;;;;;;13.55;11.35;;;7.10;99.90;;;;;;4969552;28;20233;-69
2021/12/12 17:19:14;;;;;;;18.02;11.98;;;7.10;99.90;;;;;;4968418;28;20283;-70
2021/12/12 17:21:46;;;;;;;14.82;11.35;;;7.20;99.90;;;;;;4969971;28;20271;-70
2021/12/12 17:24:13;;;;;;;9.93;8.85;;;7.20;99.90;;;;;;4971550;28;20243;-70
2021/12/12 17:26:42;;;;;;;9.38;8.38;;;7.20;99.90;;;;;;4970789;28;20228;-71
2021/12/12 17:29:20;;;;;;;9.82;8.82;;;7.20;99.90;;;;;;4965824;28;20646;-70
2021/12/12 17:31:48;;;;;;;11.60;10.45;;;7.20;99.90;;;;;;4968951;28;20235;-70
2021/12/12 17:34:21;;;;;;;14.63;11.50;;;7.20;99.90;;;;;;4961569;28;20280;-71
2021/12/12 17:36:54;;;;;;;11.07;9.27;;;7.20;99.90;;;;;;4970656;28;20221;-69
2021/12/12 17:39:24;;;;;;;11.05;8.98;;;7.30;99.90;;;;;;4970551;28;20213;-69
2021/12/12 17:42:41;;;;;;;9.75;8.68;;;7.30;99.90;;;;;;4970606;28;20204;-69
2021/12/12 17:45:45;;;;;;;9.32;7.93;;;7.30;99.90;;;;;;4964722;28;20300;-70
2021/12/12 17:49:04;;;;;;;8.82;7.78;;;7.30;99.90;;;;;;4966257;28;20641;-70
2021/12/12 17:52:30;;;;;;;14.05;9.18;;;7.30;99.90;;;;;;4967298;28;20889;-70
2021/12/12 17:55:06;;;;;;;12.20;9.68;;;7.40;99.90;;;;;;4966239;28;20610;-70
2021/12/12 17:57:37;;;;;;;13.68;10.00;;;7.40;99.90;;;;;;4968664;28;20228;-69
2021/12/12 18:00:11;;;;;;;13.60;8.57;;;7.40;99.90;;;;;;4965751;28;20217;-69
2021/12/12 18:02:42;;;;;;;12.73;9.50;;;7.40;99.90;;;;;;4967170;28;20207;-69
2021/12/12 18:05:12;;;;;;;11.43;9.48;;;7.40;99.90;;;;;;4964393;28;20216;-70
2021/12/12 18:08:05;;;;;;;11.70;9.68;;;7.40;99.90;;;;;;4964470;28;20244;-69
2021/12/12 18:10:37;;;;;;;17.40;11.13;;;7.50;99.90;;;;;;4967808;28;20224;-72
2021/12/12 18:13:09;;;;;;;13.43;10.40;;;7.50;99.90;;;;;;4969665;28;20244;-71
2021/12/12 18:15:45;;;;;;;12.98;10.68;;;7.50;99.90;;;;;;4970303;28;20205;-71
2021/12/12 18:18:57;;;;;;;15.38;10.68;;;7.50;99.90;;;;;;4973317;28;20199;-70
2021/12/12 18:21:30;;;;;;;16.25;10.48;;;7.60;99.90;;;;;;4966752;28;20235;-71
2021/12/12 18:24:04;;;;;;;16.67;11.50;;;7.60;99.90;;;;;;4967369;28;20565;-71
2021/12/12 18:26:50;;;;;;;13.00;10.50;;;7.60;99.90;;;;;;4964347;28;20216;-71
2021/12/12 18:29:24;;;;;;;18.17;12.38;;;7.60;99.90;;;;;;4961251;28;20212;-71
2021/12/12 18:31:53;;;;;;;15.70;11.15;;;7.60;99.90;;;;;;4971631;28;20228;-71